Airfield :
LOGIN :

Register | Disclaimer

   EN    FR    IT 

 










Legend :    VFR   Marginal VFR   IFR   Intensive IFR   Very Intensive IFR
Visi :
Ceiling :
>= 8 km
>= 3000ft
5 to 8 km
1000 to 3000 ft
1500m to 5 km
500 to 1000 ft
800 to 1500m
200 to 500 ft
< 800m
< 200 ft
Symbols :   Thunderstorms  Fog  Heavy snow  Heavy precipitations  Wind > 20 kt
SIGMETs :     Misc.  Thunderstorms  Icing  Turbulence  Mountain Waves  Volcanic Ashes






- Airport Elevation : 83 ft
- IATA code : LHR


EGLL - London Heathrow

CURRENT METAR :
  • 162350Z AUTO 24014KT 9999 NCD 06/01 Q1006 NOSIG

EXPIRED METARs :
  • 162320Z AUTO 24017KT 9999 NCD 06/01 Q1005 NOSIG
  • 162250Z AUTO 25020KT 9999 FEW031 06/01 Q1004 NOSIG
  • 162220Z AUTO 24018KT 9999 NCD 06/01 Q1004 TEMPO SHRA
  • 162150Z AUTO 25019G29KT 9999 NCD 07/01 Q1003 TEMPO SHRA
  • 162120Z AUTO 25022G32KT 9999 //////TCU 07/01 Q1002

TAF TAF EGLL
Valid from the 17 at 00:00 until the 18 at 06:00 UTC


162303Z 1700/1806 22015KT 9999 FEW030
PROB30
TEMPO 1704/1710 23016G26KT 8000 SHRA
TEMPO 1710/1720 8000 SHRA
PROB40
TEMPO 1710/1720 24018G30KT 4000 +SHRA BKN014CB



MET'MAP, your aeronautical weather chart ! - Copyright ORBIFLY December 2007 - Disclaimer

ORBIFLY MET'MAP TEAM :

Programming & Development : Alexandra Zaïnal
Concept & original design : Baudouin d'Aumeries
Assistance for programming : Marc-Olivier Méhu
Technical & hardware support : Manuel Goepfert

Contact : metmap@orbifly.com




SOURCES & CREDITS :

   NOAA